Merle K (Mudhole) Smith Airport
PACV : rendu visible

Aérodrome :











RETROUVEZ-NOUS SUR...

 
LOGIN :

S'inscrire | Disclaimer

   EN    FR    IT 

 









Légende :    VFR   VFR Marginal   IFR   IFR Intensif   IFR Très Intensif
Visi : 
Plafond : 
>= 8 km
>= 3000ft
5 à 8 km
1000 à 3000 ft
1500m à 5 km
500 à 1000 ft
800 à 1500m
200 à 500 ft
< 800m
< 200 ft
Symboles :   Orages  Brouillard  Fortes neiges  Fortes précipitations  Vent > 20 kt






- Altitude de l'aérodrome : 54 ft
- Code IATA : CDV


PACV - Merle K (Mudhole) Smith

DERNIER METAR :
  • 250801Z 08004KT 10SM FEW021 SCT026 OVC034 06/04 A2992 RMK AO2 T00610044

METARs EXPIRÉS :
  • 250653Z 09006KT 7SM -RA SCT017 BKN024 OVC029 07/05 A2991 RMK AO2 SLP128 P0002 T00670050
  • 250553Z 09006KT 4SM -RA BR FEW008 SCT016 OVC029 07/06 A2989 RMK AO2 SLP123 P0005 60040 T00720056 10089 20072 53010

TAF PACV
Valide du 25 à 06h jusqu'au 26 à 06h UTC


250521Z 2506/2606 VRB03KT P6SM -SHRA SCT015 OVC030
TEMPO 2506/2510 3SM -SHRA BR BKN015
FIR PAZA / Amérique du Nord



MET'MAP, la Météo Aéronautique d'un coup d'oeil ! - Copyright ORBIFLY Décembre 2007 - Disclaimer

ORBIFLY MET'MAP TEAM :

Programmation & Développement : Alexandra Zaïnal
Sur une idée originale de : Baudouin d'Aumeries
Assistance à la programmation : Marc-Olivier Méhu
Soutien technique & logistique : Manuel Goepfert

Contact : metmap@orbifly.com




SOURCES & CREDITS :

   NOAA       Earth
Advisory